sensor_id;sensor_type;location;lat;lon;timestamp;pressure;altitude;pressure_sealevel;temperature;humidity
76095;BME280;64821;13.710;100.604;2023-05-07T00:00:42;100481.06;;;38.44;42.36
76095;BME280;64821;13.710;100.604;2023-05-07T00:01:46;100490.19;;;38.45;41.64
76095;BME280;64821;13.710;100.604;2023-05-07T00:02:49;100483.47;;;38.46;41.19
76095;BME280;64821;13.710;100.604;2023-05-07T00:03:53;100495.34;;;38.46;41.70
76095;BME280;64821;13.710;100.604;2023-05-07T00:04:58;100486.69;;;38.48;41.61
76095;BME280;64821;13.710;100.604;2023-05-07T00:06:02;100487.09;;;38.50;41.72
76095;BME280;64821;13.710;100.604;2023-05-07T00:07:05;100481.88;;;38.45;41.58
76095;BME280;64821;13.710;100.604;2023-05-07T00:08:09;100496.19;;;38.50;40.52
76095;BME280;64821;13.710;100.604;2023-05-07T00:09:13;100477.22;;;38.49;41.02
76095;BME280;64821;13.710;100.604;2023-05-07T00:10:17;100481.88;;;38.45;41.15
76095;BME280;64821;13.710;100.604;2023-05-07T00:11:23;100492.78;;;38.57;40.44
76095;BME280;64821;13.710;100.604;2023-05-07T00:12:27;100501.09;;;38.57;40.58
76095;BME280;64821;13.710;100.604;2023-05-07T00:13:30;100486.81;;;38.55;40.33
76095;BME280;64821;13.710;100.604;2023-05-07T00:14:34;100498.38;;;38.61;40.76
76095;BME280;64821;13.710;100.604;2023-05-07T00:15:38;100502.44;;;38.67;40.60
76095;BME280;64821;13.710;100.604;2023-05-07T00:16:42;100498.09;;;38.69;40.38
76095;BME280;64821;13.710;100.604;2023-05-07T00:17:45;100508.78;;;38.67;40.31
76095;BME280;64821;13.710;100.604;2023-05-07T00:18:49;100509.94;;;38.66;40.52
76095;BME280;64821;13.710;100.604;2023-05-07T00:19:53;100513.16;;;38.68;40.20
76095;BME280;64821;13.710;100.604;2023-05-07T00:20:57;100508.38;;;38.69;40.17
76095;BME280;64821;13.710;100.604;2023-05-07T00:22:01;100509.19;;;38.69;40.09
76095;BME280;64821;13.710;100.604;2023-05-07T00:23:04;100504.41;;;38.66;39.99
76095;BME280;64821;13.710;100.604;2023-05-07T00:24:08;100518.69;;;38.68;39.42
76095;BME280;64821;13.710;100.604;2023-05-07T00:25:12;100488.78;;;38.55;39.96
76095;BME280;64821;13.710;100.604;2023-05-07T00:26:16;100514.31;;;38.67;40.62
76095;BME280;64821;13.710;100.604;2023-05-07T00:27:21;100501.94;;;38.61;40.10
76095;BME280;64821;13.710;100.604;2023-05-07T00:28:25;100525.13;;;38.76;40.27
76095;BME280;64821;13.710;100.604;2023-05-07T00:29:29;100529.13;;;38.78;39.92
76095;BME280;64821;13.710;100.604;2023-05-07T00:30:35;100530.72;;;38.79;40.09
76095;BME280;64821;13.710;100.604;2023-05-07T00:31:42;100525.94;;;38.76;40.04
76095;BME280;64821;13.710;100.604;2023-05-07T00:32:49;100478.44;;;38.52;39.68
76095;BME280;64821;13.710;100.604;2023-05-07T00:33:53;100533.91;;;38.81;40.15
76095;BME280;64821;13.710;100.604;2023-05-07T00:34:57;100533.19;;;38.84;40.14
76095;BME280;64821;13.710;100.604;2023-05-07T00:36:01;100530.41;;;38.84;39.60
76095;BME280;64821;13.710;100.604;2023-05-07T00:37:04;100533.19;;;38.84;39.58
76095;BME280;64821;13.710;100.604;2023-05-07T00:38:08;100536.75;;;38.85;39.27
76095;BME280;64821;13.710;100.604;2023-05-07T00:39:12;100541.50;;;38.84;40.23
76095;BME280;64821;13.710;100.604;2023-05-07T00:40:15;100535.88;;;38.81;38.87
76095;BME280;64821;13.710;100.604;2023-05-07T00:41:19;100550.22;;;38.86;39.25
76095;BME280;64821;13.710;100.604;2023-05-07T00:42:24;100529.13;;;38.78;39.54
76095;BME280;64821;13.710;100.604;2023-05-07T00:43:28;100516.03;;;38.75;39.45
76095;BME280;64821;13.710;100.604;2023-05-07T00:44:32;100546.69;;;38.90;39.44
76095;BME280;64821;13.710;100.604;2023-05-07T00:45:36;100542.75;;;38.91;39.36
76095;BME280;64821;13.710;100.604;2023-05-07T00:46:40;100532.75;;;38.82;39.56
76095;BME280;64821;13.710;100.604;2023-05-07T00:47:44;100551.13;;;38.94;39.75
76095;BME280;64821;13.710;100.604;2023-05-07T00:48:48;100559.13;;;38.96;39.70
76095;BME280;64821;13.710;100.604;2023-05-07T00:49:53;100554.41;;;39.00;39.43
76095;BME280;64821;13.710;100.604;2023-05-07T00:50:57;100558.41;;;39.02;38.87
76095;BME280;64821;13.710;100.604;2023-05-07T00:52:01;100558.06;;;39.04;39.53
76095;BME280;64821;13.710;100.604;2023-05-07T00:53:06;100554.03;;;39.01;39.70
76095;BME280;64821;13.710;100.604;2023-05-07T00:54:10;100572.75;;;39.08;38.98
76095;BME280;64821;13.710;100.604;2023-05-07T00:55:14;100568.81;;;39.09;39.31
76095;BME280;64821;13.710;100.604;2023-05-07T00:56:17;100548.38;;;38.94;39.27
76095;BME280;64821;13.710;100.604;2023-05-07T00:57:22;100562.53;;;39.12;39.32
76095;BME280;64821;13.710;100.604;2023-05-07T00:58:29;100567.69;;;39.13;39.24
76095;BME280;64821;13.710;100.604;2023-05-07T00:59:33;100580.38;;;39.14;39.15
76095;BME280;64821;13.710;100.604;2023-05-07T01:00:37;100562.53;;;39.12;38.71
76095;BME280;64821;13.710;100.604;2023-05-07T01:01:40;100553.75;;;39.06;38.68
76095;BME280;64821;13.710;100.604;2023-05-07T01:02:44;100574.88;;;39.18;38.80
76095;BME280;64821;13.710;100.604;2023-05-07T01:03:48;100577.28;;;39.19;38.69
76095;BME280;64821;13.710;100.604;2023-05-07T01:04:52;100563.75;;;39.14;38.88
76095;BME280;64821;13.710;100.604;2023-05-07T01:05:57;100563.75;;;39.14;39.08
76095;BME280;64821;13.710;100.604;2023-05-07T01:07:04;100573.41;;;39.24;38.58
76095;BME280;64821;13.710;100.604;2023-05-07T01:08:08;100558.69;;;39.20;38.29
76095;BME280;64821;13.710;100.604;2023-05-07T01:09:13;100568.22;;;39.22;38.45
76095;BME280;64821;13.710;100.604;2023-05-07T01:10:17;100581.34;;;39.26;38.51
76095;BME280;64821;13.710;100.604;2023-05-07T01:11:21;100580.22;;;39.30;38.76
76095;BME280;64821;13.710;100.604;2023-05-07T01:12:25;100577.44;;;39.30;38.80
76095;BME280;64821;13.710;100.604;2023-05-07T01:13:31;100564.66;;;39.22;39.19
76095;BME280;64821;13.710;100.604;2023-05-07T01:14:36;100588.59;;;39.34;38.86
76095;BME280;64821;13.710;100.604;2023-05-07T01:15:40;100590.56;;;39.33;39.28
76095;BME280;64821;13.710;100.604;2023-05-07T01:16:44;100593.34;;;39.33;38.47
76095;BME280;64821;13.710;100.604;2023-05-07T01:17:48;100596.94;;;39.37;38.92
76095;BME280;64821;13.710;100.604;2023-05-07T01:18:52;100594.59;;;39.39;38.31
76095;BME280;64821;13.710;100.604;2023-05-07T01:19:58;100589.69;;;39.29;38.09
76095;BME280;64821;13.710;100.604;2023-05-07T01:21:04;100595.31;;;39.33;38.88
76095;BME280;64821;13.710;100.604;2023-05-07T01:22:11;100588.97;;;39.32;38.11
76095;BME280;64821;13.710;100.604;2023-05-07T01:23:16;100590.94;;;39.32;38.12
76095;BME280;64821;13.710;100.604;2023-05-07T01:24:21;100599.34;;;39.39;38.20
76095;BME280;64821;13.710;100.604;2023-05-07T01:25:25;100595.44;;;39.40;38.92
76095;BME280;64821;13.710;100.604;2023-05-07T01:26:29;100596.09;;;39.33;38.03
76095;BME280;64821;13.710;100.604;2023-05-07T01:27:33;100607.25;;;39.37;37.98
76095;BME280;64821;13.710;100.604;2023-05-07T01:28:36;100600.47;;;39.34;38.77
76095;BME280;64821;13.710;100.604;2023-05-07T01:29:40;100579.25;;;39.19;38.59
76095;BME280;64821;13.710;100.604;2023-05-07T01:30:46;100602.59;;;39.41;38.82
76095;BME280;64821;13.710;100.604;2023-05-07T01:31:51;100602.22;;;39.42;37.85
76095;BME280;64821;13.710;100.604;2023-05-07T01:33:00;100603.44;;;39.45;38.54
76095;BME280;64821;13.710;100.604;2023-05-07T01:34:07;100594.16;;;39.37;37.62
76095;BME280;64821;13.710;100.604;2023-05-07T01:35:18;100610.16;;;39.44;37.65
76095;BME280;64821;13.710;100.604;2023-05-07T01:36:23;100582.16;;;39.26;37.69
76095;BME280;64821;13.710;100.604;2023-05-07T01:37:27;100608.22;;;39.48;38.03
76095;BME280;64821;13.710;100.604;2023-05-07T01:38:33;100609.03;;;39.48;37.96
76095;BME280;64821;13.710;100.604;2023-05-07T01:39:39;100603.00;;;39.43;37.26
76095;BME280;64821;13.710;100.604;2023-05-07T01:40:43;100604.84;;;39.35;37.83
76095;BME280;64821;13.710;100.604;2023-05-07T01:41:47;100616.94;;;39.46;38.07
76095;BME280;64821;13.710;100.604;2023-05-07T01:42:51;100594.97;;;39.38;37.70
76095;BME280;64821;13.710;100.604;2023-05-07T01:43:58;100614.56;;;39.48;37.54
76095;BME280;64821;13.710;100.604;2023-05-07T01:45:03;100612.97;;;39.47;37.64
76095;BME280;64821;13.710;100.604;2023-05-07T01:46:07;100609.41;;;39.47;37.81
76095;BME280;64821;13.710;100.604;2023-05-07T01:47:12;100574.50;;;39.19;37.05
76095;BME280;64821;13.710;100.604;2023-05-07T01:48:18;100593.69;;;39.32;37.03
76095;BME280;64821;13.710;100.604;2023-05-07T01:49:22;100619.72;;;39.46;37.06
76095;BME280;64821;13.710;100.604;2023-05-07T01:50:27;100614.25;;;39.53;37.41
76095;BME280;64821;13.710;100.604;2023-05-07T01:51:32;100616.28;;;39.56;37.57
76095;BME280;64821;13.710;100.604;2023-05-07T01:52:37;100618.28;;;39.59;36.94
76095;BME280;64821;13.710;100.604;2023-05-07T01:53:43;100624.28;;;39.62;36.66
76095;BME280;64821;13.710;100.604;2023-05-07T01:54:47;100615.22;;;39.65;37.37
76095;BME280;64821;13.710;100.604;2023-05-07T01:55:53;100616.38;;;39.64;36.78
76095;BME280;64821;13.710;100.604;2023-05-07T01:56:56;100616.38;;;39.64;36.34
76095;BME280;64821;13.710;100.604;2023-05-07T01:58:00;100578.13;;;39.46;36.85
76095;BME280;64821;13.710;100.604;2023-05-07T01:59:04;100616.03;;;39.69;36.89
76095;BME280;64821;13.710;100.604;2023-05-07T02:00:09;100607.28;;;39.67;36.76
76095;BME280;64821;13.710;100.604;2023-05-07T02:01:13;100614.13;;;39.73;37.14
76095;BME280;64821;13.710;100.604;2023-05-07T02:02:17;100619.69;;;39.73;36.83
76095;BME280;64821;13.710;100.604;2023-05-07T02:03:21;100612.97;;;39.74;36.30
76095;BME280;64821;13.710;100.604;2023-05-07T02:04:25;100611.00;;;39.74;36.88
76095;BME280;64821;13.710;100.604;2023-05-07T02:05:29;100614.13;;;39.73;36.71
76095;BME280;64821;13.710;100.604;2023-05-07T02:06:33;100594.19;;;39.64;36.42
76095;BME280;64821;13.710;100.604;2023-05-07T02:07:37;100619.41;;;39.81;36.86
76095;BME280;64821;13.710;100.604;2023-05-07T02:08:42;100619.03;;;39.83;36.83
76095;BME280;64821;13.710;100.604;2023-05-07T02:09:46;100607.13;;;39.82;36.93
76095;BME280;64821;13.710;100.604;2023-05-07T02:10:50;100607.13;;;39.82;36.08
76095;BME280;64821;13.710;100.604;2023-05-07T02:11:58;100611.53;;;39.83;36.44
76095;BME280;64821;13.710;100.604;2023-05-07T02:13:07;100610.38;;;39.84;36.24
76095;BME280;64821;13.710;100.604;2023-05-07T02:14:14;100575.91;;;39.59;35.50
76095;BME280;64821;13.710;100.604;2023-05-07T02:15:29;100609.03;;;39.78;36.65
76095;BME280;64821;13.710;100.604;2023-05-07T02:16:36;100611.53;;;39.83;36.35
76095;BME280;64821;13.710;100.604;2023-05-07T02:18:02;100599.91;;;39.78;34.54
76095;BME280;64821;13.710;100.604;2023-05-07T02:19:23;100544.06;;;39.46;33.82
76095;BME280;64821;13.710;100.604;2023-05-07T02:20:32;100596.41;;;39.81;35.54
76095;BME280;64821;13.710;100.604;2023-05-07T02:21:39;100575.88;;;39.55;34.07
76095;BME280;64821;13.710;100.604;2023-05-07T02:22:48;100599.53;;;39.76;33.58
76095;BME280;64821;13.710;100.604;2023-05-07T02:23:59;100583.91;;;39.64;35.14
76095;BME280;64821;13.710;100.604;2023-05-07T02:25:03;100615.38;;;39.79;35.57
76095;BME280;64821;13.710;100.604;2023-05-07T02:26:06;100611.00;;;39.78;34.50
76095;BME280;64821;13.710;100.604;2023-05-07T02:27:10;100603.63;;;39.85;34.50
76095;BME280;64821;13.710;100.604;2023-05-07T02:28:14;100595.34;;;39.89;34.83
76095;BME280;64821;13.710;100.604;2023-05-07T02:29:18;100598.38;;;39.80;33.57
76095;BME280;64821;13.710;100.604;2023-05-07T02:30:21;100552.63;;;39.67;34.07
76095;BME280;64821;13.710;100.604;2023-05-07T02:31:25;100575.38;;;39.80;33.06
76095;BME280;64821;13.710;100.604;2023-05-07T02:32:29;100580.66;;;39.85;33.51
76095;BME280;64821;13.710;100.604;2023-05-07T02:33:33;100587.09;;;39.92;34.28
76095;BME280;64821;13.710;100.604;2023-05-07T02:34:36;100593.09;;;39.98;33.71
76095;BME280;64821;13.710;100.604;2023-05-07T02:35:40;100589.94;;;40.00;33.71
76095;BME280;64821;13.710;100.604;2023-05-07T02:36:44;100587.97;;;40.00;33.55
76095;BME280;64821;13.710;100.604;2023-05-07T02:37:54;100594.69;;;39.99;34.36
76095;BME280;64821;13.710;100.604;2023-05-07T02:39:00;100585.97;;;40.01;32.52
76095;BME280;64821;13.710;100.604;2023-05-07T02:40:04;100587.91;;;39.97;32.77
76095;BME280;64821;13.710;100.604;2023-05-07T02:41:09;100591.59;;;40.04;32.61
76095;BME280;64821;13.710;100.604;2023-05-07T02:42:12;100553.72;;;39.85;32.65
76095;BME280;64821;13.710;100.604;2023-05-07T02:43:16;100556.88;;;39.84;32.49
76095;BME280;64821;13.710;100.604;2023-05-07T02:44:20;100584.88;;;40.05;33.21
76095;BME280;64821;13.710;100.604;2023-05-07T02:45:24;100581.69;;;40.07;32.05
76095;BME280;64821;13.710;100.604;2023-05-07T02:46:27;100577.75;;;40.08;33.01
76095;BME280;64821;13.710;100.604;2023-05-07T02:47:31;100584.00;;;40.01;32.12
76095;BME280;64821;13.710;100.604;2023-05-07T02:48:35;100573.38;;;40.07;31.21
76095;BME280;64821;13.710;100.604;2023-05-07T02:49:39;100577.75;;;40.08;32.87
76095;BME280;64821;13.710;100.604;2023-05-07T02:50:43;100574.16;;;40.07;32.78
76095;BME280;64821;13.710;100.604;2023-05-07T02:51:47;100554.66;;;40.00;32.41
76095;BME280;64821;13.710;100.604;2023-05-07T02:52:50;100573.09;;;40.15;31.29
76095;BME280;64821;13.710;100.604;2023-05-07T02:53:54;100557.94;;;40.09;31.34
76095;BME280;64821;13.710;100.604;2023-05-07T02:54:59;100569.13;;;40.16;31.69
76095;BME280;64821;13.710;100.604;2023-05-07T02:56:03;100571.94;;;40.20;30.93
76095;BME280;64821;13.710;100.604;2023-05-07T02:57:07;100555.97;;;40.10;31.14
76095;BME280;64821;13.710;100.604;2023-05-07T02:58:11;100560.72;;;40.09;30.80
76095;BME280;64821;13.710;100.604;2023-05-07T02:59:15;100565.25;;;40.24;31.30
76095;BME280;64821;13.710;100.604;2023-05-07T03:00:19;100568.03;;;40.24;31.58
76095;BME280;64821;13.710;100.604;2023-05-07T03:01:23;100573.69;;;40.32;30.52
76095;BME280;64821;13.710;100.604;2023-05-07T03:02:27;100562.97;;;40.30;31.56
76095;BME280;64821;13.710;100.604;2023-05-07T03:03:31;100568.56;;;40.34;30.70
76095;BME280;64821;13.710;100.604;2023-05-07T03:04:35;100562.38;;;40.17;31.21
76095;BME280;64821;13.710;100.604;2023-05-07T03:05:39;100562.66;;;40.39;31.46
76095;BME280;64821;13.710;100.604;2023-05-07T03:06:43;100556.34;;;40.45;31.30
76095;BME280;64821;13.710;100.604;2023-05-07T03:07:46;100556.41;;;40.49;30.05
76095;BME280;64821;13.710;100.604;2023-05-07T03:08:50;100543.31;;;40.49;30.82
76095;BME280;64821;13.710;100.604;2023-05-07T03:09:54;100536.59;;;40.50;31.29
76095;BME280;64821;13.710;100.604;2023-05-07T03:11:00;100554.53;;;40.60;31.64
76095;BME280;64821;13.710;100.604;2023-05-07T03:12:04;100554.97;;;40.65;30.27
76095;BME280;64821;13.710;100.604;2023-05-07T03:13:08;100545.78;;;40.58;31.23
76095;BME280;64821;13.710;100.604;2023-05-07T03:14:12;100548.16;;;40.59;30.00
76095;BME280;64821;13.710;100.604;2023-05-07T03:15:15;100526.31;;;40.54;30.84
76095;BME280;64821;13.710;100.604;2023-05-07T03:16:19;100377.09;;;39.59;29.66
76095;BME280;64821;13.710;100.604;2023-05-07T03:17:23;100533.97;;;40.68;30.19
76095;BME280;64821;13.710;100.604;2023-05-07T03:18:27;100537.53;;;40.68;29.73
76095;BME280;64821;13.710;100.604;2023-05-07T03:19:31;100529.59;;;40.67;29.64
76095;BME280;64821;13.710;100.604;2023-05-07T03:20:35;100536.44;;;40.73;29.21
76095;BME280;64821;13.710;100.604;2023-05-07T03:21:39;100530.47;;;40.75;29.01
76095;BME280;64821;13.710;100.604;2023-05-07T03:22:53;100514.09;;;40.66;29.66
76095;BME280;64821;13.710;100.604;2023-05-07T03:23:57;100528.06;;;40.70;30.29
76095;BME280;64821;13.710;100.604;2023-05-07T03:25:00;100522.44;;;40.66;28.55
76095;BME280;64821;13.710;100.604;2023-05-07T03:26:06;100504.97;;;40.62;28.77
76095;BME280;64821;13.710;100.604;2023-05-07T03:27:10;100522.22;;;40.82;29.34
76095;BME280;64821;13.710;100.604;2023-05-07T03:28:14;100468.63;;;40.37;29.84
76095;BME280;64821;13.710;100.604;2023-05-07T03:29:17;100529.31;;;40.79;29.61
76095;BME280;64821;13.710;100.604;2023-05-07T03:30:21;100523.41;;;40.84;29.46
76095;BME280;64821;13.710;100.604;2023-05-07T03:31:25;100517.06;;;40.87;28.34
76095;BME280;64821;13.710;100.604;2023-05-07T03:32:29;100521.88;;;40.90;28.69
76095;BME280;64821;13.710;100.604;2023-05-07T03:33:33;100498.72;;;40.76;28.57
76095;BME280;64821;13.710;100.604;2023-05-07T03:34:37;100515.94;;;40.95;29.34
76095;BME280;64821;13.710;100.604;2023-05-07T03:35:41;100482.47;;;40.78;28.43
76095;BME280;64821;13.710;100.604;2023-05-07T03:36:45;100508.78;;;40.94;28.56
76095;BME280;64821;13.710;100.604;2023-05-07T03:37:49;100494.09;;;40.90;28.38
76095;BME280;64821;13.710;100.604;2023-05-07T03:38:52;100509.28;;;41.03;28.73
76095;BME280;64821;13.710;100.604;2023-05-07T03:39:56;100498.16;;;41.03;28.15
76095;BME280;64821;13.710;100.604;2023-05-07T03:41:00;100501.34;;;41.09;27.94
76095;BME280;64821;13.710;100.604;2023-05-07T03:42:05;100496.94;;;41.04;27.69
76095;BME280;64821;13.710;100.604;2023-05-07T03:43:09;100504.13;;;41.09;27.66
76095;BME280;64821;13.710;100.604;2023-05-07T03:44:13;100493.50;;;41.18;27.70
76095;BME280;64821;13.710;100.604;2023-05-07T03:45:19;100495.09;;;41.19;27.74
76095;BME280;64821;13.710;100.604;2023-05-07T03:46:24;100487.91;;;41.15;28.29
76095;BME280;64821;13.710;100.604;2023-05-07T03:47:28;100490.69;;;41.11;27.85
76095;BME280;64821;13.710;100.604;2023-05-07T03:48:32;100494.31;;;41.22;28.51
76095;BME280;64821;13.710;100.604;2023-05-07T03:49:36;100493.91;;;41.24;27.99
76095;BME280;64821;13.710;100.604;2023-05-07T03:50:40;100490.34;;;41.20;27.89
76095;BME280;64821;13.710;100.604;2023-05-07T03:51:44;100484.81;;;41.27;28.21
76095;BME280;64821;13.710;100.604;2023-05-07T03:52:47;100481.66;;;41.35;27.27
76095;BME280;64821;13.710;100.604;2023-05-07T03:54:06;100487.59;;;41.34;27.58
76095;BME280;64821;13.710;100.604;2023-05-07T03:55:27;100483.66;;;41.35;27.51
76095;BME280;64821;13.710;100.604;2023-05-07T03:56:35;100484.81;;;41.34;28.55
76095;BME280;64821;13.710;100.604;2023-05-07T03:58:01;100487.28;;;41.46;27.48
76095;BME280;64821;13.710;100.604;2023-05-07T03:59:20;100424.41;;;41.13;27.72
76095;BME280;64821;13.710;100.604;2023-05-07T04:00:31;100483.78;;;41.56;27.71
76095;BME280;64821;13.710;100.604;2023-05-07T04:01:36;100486.97;;;41.58;28.10
76095;BME280;64821;13.710;100.604;2023-05-07T04:02:47;100449.50;;;41.38;27.82
76095;BME280;64821;13.710;100.604;2023-05-07T04:04:05;100470.94;;;41.37;26.45
76095;BME280;64821;13.710;100.604;2023-05-07T04:05:09;100466.63;;;41.47;27.15
76095;BME280;64821;13.710;100.604;2023-05-07T04:06:13;100482.22;;;41.66;26.28
76095;BME280;64821;13.710;100.604;2023-05-07T04:07:17;100486.19;;;41.61;26.41
76095;BME280;64821;13.710;100.604;2023-05-07T04:08:20;100484.22;;;41.72;26.26
76095;BME280;64821;13.710;100.604;2023-05-07T04:09:24;100472.72;;;41.70;26.20
76095;BME280;64821;13.710;100.604;2023-05-07T04:10:29;100475.00;;;41.54;26.97
76095;BME280;64821;13.710;100.604;2023-05-07T04:11:34;100467.41;;;41.48;26.74
76095;BME280;64821;13.710;100.604;2023-05-07T04:12:42;100479.03;;;41.60;26.71
76095;BME280;64821;13.710;100.604;2023-05-07T04:14:06;100471.91;;;41.70;26.61
76095;BME280;64821;13.710;100.604;2023-05-07T04:15:16;100415.31;;;41.34;26.86
76095;BME280;64821;13.710;100.604;2023-05-07T04:16:32;100465.19;;;41.85;26.88
76095;BME280;64821;13.710;100.604;2023-05-07T04:18:07;100460.84;;;41.91;26.77
76095;BME280;64821;13.710;100.604;2023-05-07T04:19:14;100465.19;;;41.89;26.28
76095;BME280;64821;13.710;100.604;2023-05-07T04:20:18;100462.84;;;41.98;26.25
76095;BME280;64821;13.710;100.604;2023-05-07T04:21:22;100464.41;;;41.92;26.35
76095;BME280;64821;13.710;100.604;2023-05-07T04:22:32;100462.06;;;42.01;26.74
76095;BME280;64821;13.710;100.604;2023-05-07T04:23:36;100456.88;;;42.03;26.03
76095;BME280;64821;13.710;100.604;2023-05-07T04:24:40;100458.03;;;41.88;26.81
76095;BME280;64821;13.710;100.604;2023-05-07T04:25:44;100461.66;;;41.99;27.46
76095;BME280;64821;13.710;100.604;2023-05-07T04:26:47;100454.91;;;42.03;27.00
76095;BME280;64821;13.710;100.604;2023-05-07T04:27:58;100420.28;;;41.90;26.48
76095;BME280;64821;13.710;100.604;2023-05-07T04:29:02;100446.56;;;42.00;26.59
76095;BME280;64821;13.710;100.604;2023-05-07T04:30:08;100447.75;;;42.06;26.14
76095;BME280;64821;13.710;100.604;2023-05-07T04:31:13;100443.41;;;42.08;26.92
76095;BME280;64821;13.710;100.604;2023-05-07T04:32:17;100431.88;;;42.10;26.55
76095;BME280;64821;13.710;100.604;2023-05-07T04:33:21;100424.69;;;42.02;25.19
76095;BME280;64821;13.710;100.604;2023-05-07T04:34:24;100404.81;;;42.03;26.57
76095;BME280;64821;13.710;100.604;2023-05-07T04:35:28;100415.56;;;41.98;25.15
76095;BME280;64821;13.710;100.604;2023-05-07T04:36:32;100417.13;;;42.02;25.24
76095;BME280;64821;13.710;100.604;2023-05-07T04:37:36;100386.50;;;41.92;25.08
76095;BME280;64821;13.710;100.604;2023-05-07T04:38:39;100423.91;;;42.26;25.41
76095;BME280;64821;13.710;100.604;2023-05-07T04:39:46;100431.06;;;42.27;25.55
76095;BME280;64821;13.710;100.604;2023-05-07T04:40:50;100429.50;;;42.30;25.93
76095;BME280;64821;13.710;100.604;2023-05-07T04:41:54;100425.50;;;42.34;25.66
76095;BME280;64821;13.710;100.604;2023-05-07T04:42:57;100417.94;;;42.35;24.69
76095;BME280;64821;13.710;100.604;2023-05-07T04:44:01;100412.41;;;42.21;24.53
76095;BME280;64821;13.710;100.604;2023-05-07T04:45:07;100424.69;;;42.34;25.69
76095;BME280;64821;13.710;100.604;2023-05-07T04:46:11;100397.69;;;42.31;25.99
76095;BME280;64821;13.710;100.604;2023-05-07T04:47:15;100406.03;;;42.41;25.84
76095;BME280;64821;13.710;100.604;2023-05-07T04:48:19;100410.78;;;42.52;24.65
76095;BME280;64821;13.710;100.604;2023-05-07T04:49:23;100407.59;;;42.53;25.01
76095;BME280;64821;13.710;100.604;2023-05-07T04:50:26;100400.47;;;42.49;25.06
76095;BME280;64821;13.710;100.604;2023-05-07T04:51:30;100410.38;;;42.64;25.22
76095;BME280;64821;13.710;100.604;2023-05-07T04:52:36;100410.38;;;42.67;25.25
76095;BME280;64821;13.710;100.604;2023-05-07T04:53:41;100406.00;;;42.70;24.83
76095;BME280;64821;13.710;100.604;2023-05-07T04:54:45;100400.81;;;42.61;25.48
76095;BME280;64821;13.710;100.604;2023-05-07T04:55:54;100408.00;;;42.66;24.42
76095;BME280;64821;13.710;100.604;2023-05-07T04:56:58;100403.59;;;42.72;25.39
76095;BME280;64821;13.710;100.604;2023-05-07T04:58:02;100401.63;;;42.76;24.55
76095;BME280;64821;13.710;100.604;2023-05-07T04:59:06;100397.63;;;42.84;23.91
76095;BME280;64821;13.710;100.604;2023-05-07T05:00:15;100396.03;;;42.83;25.87
76095;BME280;64821;13.710;100.604;2023-05-07T05:01:19;100398.41;;;42.88;25.63
76095;BME280;64821;13.710;100.604;2023-05-07T20:01:44;100174.31;;;37.64;48.12
76095;BME280;64821;13.710;100.604;2023-05-07T20:02:48;100222.81;;;37.84;48.88
76095;BME280;64821;13.710;100.604;2023-05-07T20:03:51;100197.63;;;37.89;47.64
76095;BME280;64821;13.710;100.604;2023-05-07T20:04:55;100227.63;;;37.91;48.62
76095;BME280;64821;13.710;100.604;2023-05-07T20:05:59;100223.41;;;37.97;48.22
76095;BME280;64821;13.710;100.604;2023-05-07T20:07:03;100227.31;;;37.96;48.63
76095;BME280;64821;13.710;100.604;2023-05-07T20:08:07;100193.09;;;37.77;48.71
76095;BME280;64821;13.710;100.604;2023-05-07T20:09:11;100223.22;;;38.09;47.89
76095;BME280;64821;13.710;100.604;2023-05-07T20:10:18;100219.25;;;38.10;48.02
76095;BME280;64821;13.710;100.604;2023-05-07T20:11:21;100225.72;;;38.18;47.94
76095;BME280;64821;13.710;100.604;2023-05-07T20:12:25;100203.66;;;37.98;48.31
76095;BME280;64821;13.710;100.604;2023-05-07T20:13:29;100208.25;;;37.87;49.00
76095;BME280;64821;13.710;100.604;2023-05-07T20:14:33;100179.00;;;37.86;47.56
76095;BME280;64821;13.710;100.604;2023-05-07T20:15:37;100217.41;;;38.18;47.70
76095;BME280;64821;13.710;100.604;2023-05-07T20:16:41;100219.41;;;38.21;48.42
76095;BME280;64821;13.710;100.604;2023-05-07T20:17:46;100216.69;;;38.24;47.56
76095;BME280;64821;13.710;100.604;2023-05-07T20:18:51;100219.81;;;38.19;48.14
76095;BME280;64821;13.710;100.604;2023-05-07T20:19:55;100222.31;;;38.05;48.57
76095;BME280;64821;13.710;100.604;2023-05-07T20:20:59;100205.31;;;38.03;48.68
76095;BME280;64821;13.710;100.604;2023-05-07T20:22:02;100214.16;;;38.12;48.11
76095;BME280;64821;13.710;100.604;2023-05-07T20:23:06;100201.63;;;37.95;48.68
76095;BME280;64821;13.710;100.604;2023-05-07T20:24:10;100213.59;;;38.03;48.25
76095;BME280;64821;13.710;100.604;2023-05-07T20:25:13;100183.16;;;37.99;48.22
76095;BME280;64821;13.710;100.604;2023-05-07T20:26:17;100225.34;;;38.19;48.42
76095;BME280;64821;13.710;100.604;2023-05-07T20:27:21;100221.34;;;38.17;47.93
76095;BME280;64821;13.710;100.604;2023-05-07T20:28:25;100200.09;;;37.98;48.64
76095;BME280;64821;13.710;100.604;2023-05-07T20:29:28;100235.59;;;38.19;48.23
76095;BME280;64821;13.710;100.604;2023-05-07T20:30:32;100138.81;;;37.66;47.76
76095;BME280;64821;13.710;100.604;2023-05-07T20:31:36;100232.88;;;38.22;48.25